Preview an experimental upcoming version of this site at Beta.AviationWeather.gov

Impacts TAF Board
For situational awareness. Not to be used for flight planning purposes.
IDs:

KBWI - Baltimore-Washington, MD, US

Issued at 1123 UTC 26 Sep 2023
Updated at 1154 UTC 26 Sep 2023
Potential Impact None Slight Moderate High
Time1054Z 26/12Z 26/13Z 26/14Z 26/15Z 26/16Z 26/17Z 26/18Z 26/19Z 26/20Z 26/21Z 26/22Z 26/23Z 27/00Z>>
Type OBS PRVL PRVL PRVL PRVL PRVL PRVL PRVL PRVL PRVL PRVL PRVL PRVL PRVL
VIS 4 4 4 4 4 4 4 4 4 4 4 4 4 4
CIG 9 9 9 9 9 9 9 9 9 9 9 9 8 8
Cover OVC OVC OVC OVC OVC OVC OVC OVC OVC OVC OVC OVC OVC OVC
FltCat IFR IFR IFR IFR IFR IFR IFR IFR IFR IFR IFR IFR IFR IFR
WX BR -DZ BR -DZ BR -DZ BR -DZ BR -DZ BR -DZ BR -DZ BR -DZ BR -DZ BR -DZ BR -DZ BR -DZ BR -DZ BR
WDir 30 30 30 30 40 40 50 50 50 50 50 50 30 30
WSpd 8 8 8 8 12 12 15 15 15 15 15 15 8 8
WGst -- -- -- -- 20 20 24 24 24 24 24 24 -- --
WSHgt -- -- -- -- -- -- -- -- -- -- -- -- -- --
WSDir -- -- -- -- -- -- -- -- -- -- -- -- -- --
WSSpd -- -- -- -- -- -- -- -- -- -- -- -- -- --

NOTE: LAMP data beyond the time of the TAF data is denoted as LAMP in Type and colored magenta.

Raw TAF
KBWI 261123Z 2612/2718 03008KT 4SM -DZ BR OVC009
  FM261500 04012G20KT 4SM -DZ BR OVC009
  FM261700 05015G24KT 4SM -DZ BR OVC009
  FM262300 03008KT 4SM -DZ BR OVC008
  FM270600 04007KT 5SM -DZ BR OVC010
  FM271000 04007KT P6SM OVC020
  FM271700 06008KT P6SM BKN030


Raw METAR
KBWI 261054Z 03008KT 4SM BR OVC009 15/14 A3024 RMK AO2 DZE51 SLP238 P0001 T01500139 $
KBWI 261031Z 03009KT 4SM -DZ BR OVC009 15/14 A3023 RMK AO2 P0001 T01500139 $
KBWI 260954Z 03009KT 4SM -DZ BR OVC010 15/14 A3021 RMK AO2 SLP230 P0000 T01500139 $
KBWI 260854Z 03009KT 5SM -DZ BR OVC010 16/14 A3020 RMK AO2 DZB43 SLP225 P0000 60002 T01560139 53003 $

METAR Board
Radar Display
Forecast Discussion

For situational awareness. Not to be used for flight planning purposes.